createdAt,value
2018-07-07T00:01:11.556Z,99.90
2018-07-07T00:03:40.128Z,99.90
2018-07-07T00:06:08.704Z,99.90
2018-07-07T00:08:37.327Z,99.90
2018-07-07T00:11:06.110Z,99.90
2018-07-07T00:13:34.692Z,99.90
2018-07-07T00:16:03.226Z,99.90
2018-07-07T00:18:31.824Z,99.90
2018-07-07T00:21:00.388Z,99.90
2018-07-07T00:23:28.952Z,99.90
2018-07-07T00:25:57.513Z,99.90
2018-07-07T00:28:26.058Z,99.90
2018-07-07T00:30:54.584Z,99.90
2018-07-07T00:33:23.147Z,99.90
2018-07-07T00:35:51.971Z,99.90
2018-07-07T00:38:20.595Z,99.90
2018-07-07T00:40:49.191Z,99.90
2018-07-07T00:43:17.740Z,99.90
2018-07-07T00:45:46.372Z,99.90
2018-07-07T00:48:14.979Z,99.90
2018-07-07T00:50:43.549Z,99.90
2018-07-07T00:53:12.109Z,99.90
2018-07-07T00:55:40.663Z,99.90
2018-07-07T00:58:09.235Z,99.90
2018-07-07T01:00:45.349Z,99.90
2018-07-07T01:03:13.957Z,99.90
2018-07-07T01:05:45.000Z,99.90
2018-07-07T01:08:13.983Z,99.90
2018-07-07T01:10:42.645Z,99.90
2018-07-07T01:13:11.161Z,99.90
2018-07-07T01:15:39.896Z,99.90
2018-07-07T01:18:08.803Z,99.90
2018-07-07T01:20:37.339Z,99.90
2018-07-07T01:23:05.868Z,99.90
2018-07-07T01:25:34.447Z,99.90
2018-07-07T01:28:03.000Z,99.90
2018-07-07T01:30:31.570Z,99.90
2018-07-07T01:33:00.148Z,99.90
2018-07-07T01:35:28.724Z,99.90
2018-07-07T01:37:57.345Z,99.90
2018-07-07T01:40:25.911Z,99.90
2018-07-07T01:42:54.455Z,99.90
2018-07-07T01:45:22.981Z,99.90
2018-07-07T01:47:51.558Z,99.90
2018-07-07T01:50:20.108Z,99.90
2018-07-07T01:52:48.745Z,99.90
2018-07-07T01:55:17.304Z,99.90
2018-07-07T01:57:45.931Z,99.90
2018-07-07T02:00:14.500Z,99.90
2018-07-07T02:02:43.117Z,99.90
2018-07-07T02:05:11.691Z,99.90
2018-07-07T02:07:40.275Z,99.90
2018-07-07T02:10:08.825Z,99.90
2018-07-07T02:12:37.450Z,99.90
2018-07-07T02:15:06.084Z,99.90
2018-07-07T02:17:34.642Z,99.90
2018-07-07T02:20:03.349Z,99.90
2018-07-07T02:22:31.946Z,99.90
2018-07-07T02:25:00.524Z,99.90
2018-07-07T02:27:29.108Z,99.90
2018-07-07T02:32:25.900Z,99.90
2018-07-07T02:34:54.468Z,99.90
2018-07-07T02:37:23.036Z,99.90
2018-07-07T02:39:51.641Z,99.90
2018-07-07T02:42:20.160Z,99.90
2018-07-07T02:44:48.722Z,99.90
2018-07-07T02:47:17.301Z,99.90
2018-07-07T02:49:45.868Z,99.90
2018-07-07T02:52:14.457Z,99.90
2018-07-07T02:54:43.032Z,99.90
2018-07-07T02:57:11.590Z,99.90
2018-07-07T02:59:40.123Z,99.90
2018-07-07T03:02:08.783Z,99.90
2018-07-07T03:04:37.346Z,99.90
2018-07-07T03:07:06.006Z,99.90
2018-07-07T03:09:34.549Z,99.90
2018-07-07T03:12:03.160Z,99.90
2018-07-07T03:14:31.824Z,99.90
2018-07-07T03:17:00.433Z,99.90
2018-07-07T03:19:28.992Z,99.90
2018-07-07T03:21:57.540Z,99.90
2018-07-07T03:24:26.108Z,99.90
2018-07-07T03:26:54.658Z,99.90
2018-07-07T03:29:23.219Z,99.90
2018-07-07T03:31:51.787Z,99.90
2018-07-07T03:34:20.307Z,99.90
2018-07-07T03:36:48.847Z,99.90
2018-07-07T03:39:17.360Z,99.90
2018-07-07T03:41:45.932Z,99.90
2018-07-07T03:44:14.439Z,99.90
2018-07-07T03:46:42.998Z,99.90
2018-07-07T03:49:11.553Z,99.90
2018-07-07T03:51:40.159Z,99.90
2018-07-07T03:54:08.685Z,99.90
2018-07-07T03:56:37.237Z,99.90
2018-07-07T03:59:05.775Z,99.90
2018-07-07T04:01:34.338Z,99.90
2018-07-07T04:04:02.843Z,99.90
2018-07-07T04:06:31.442Z,99.90
2018-07-07T04:09:00.012Z,99.90
2018-07-07T04:11:28.666Z,99.90
2018-07-07T04:13:57.155Z,99.90
2018-07-07T04:16:25.713Z,99.90
2018-07-07T04:18:54.250Z,99.90
2018-07-07T04:21:22.824Z,99.90
2018-07-07T04:23:51.358Z,99.90
2018-07-07T04:26:19.938Z,99.90
2018-07-07T04:28:48.488Z,99.90
2018-07-07T04:31:17.024Z,99.90
2018-07-07T04:33:45.553Z,99.90
2018-07-07T04:36:14.183Z,99.90
2018-07-07T04:38:42.704Z,99.90
2018-07-07T04:41:11.231Z,99.90
2018-07-07T04:43:39.799Z,99.90
2018-07-07T04:46:08.372Z,99.90
2018-07-07T04:48:36.920Z,99.90
2018-07-07T04:51:05.490Z,99.90
2018-07-07T04:53:34.070Z,99.90
2018-07-07T04:56:02.599Z,99.90
2018-07-07T04:58:31.159Z,99.90
2018-07-07T05:00:59.920Z,99.90
2018-07-07T05:03:28.465Z,99.90
2018-07-07T05:05:57.003Z,99.90
2018-07-07T05:08:25.520Z,99.90
2018-07-07T05:10:54.102Z,99.90
2018-07-07T05:13:22.630Z,99.90
2018-07-07T05:15:51.198Z,99.90
2018-07-07T05:18:19.739Z,99.90
2018-07-07T05:20:48.299Z,99.90
2018-07-07T05:23:16.849Z,99.90
2018-07-07T05:25:45.411Z,99.90
2018-07-07T05:28:13.987Z,99.90
2018-07-07T05:30:42.514Z,99.90
2018-07-07T05:33:11.077Z,99.90
2018-07-07T05:35:39.656Z,99.90
2018-07-07T05:38:08.166Z,99.90
2018-07-07T05:40:36.833Z,99.90
2018-07-07T05:43:05.638Z,99.90
2018-07-07T05:45:34.163Z,99.90
2018-07-07T05:48:02.716Z,99.90
2018-07-07T05:50:31.334Z,99.90
2018-07-07T05:52:59.886Z,99.90
2018-07-07T05:55:28.418Z,99.90
2018-07-07T05:57:57.019Z,99.90
2018-07-07T06:00:25.553Z,99.90
2018-07-07T06:02:54.093Z,99.90
2018-07-07T06:05:22.672Z,99.90
2018-07-07T06:07:51.237Z,99.90
2018-07-07T06:10:19.794Z,99.90
2018-07-07T06:12:48.330Z,99.90
2018-07-07T06:15:16.948Z,99.90
2018-07-07T06:17:45.485Z,99.90
2018-07-07T06:20:14.055Z,99.90
2018-07-07T06:22:42.717Z,99.90
2018-07-07T06:25:11.380Z,99.90
2018-07-07T06:27:39.922Z,99.90
2018-07-07T06:30:08.533Z,99.90
2018-07-07T06:32:37.116Z,99.90
2018-07-07T06:35:05.674Z,99.90
2018-07-07T06:37:34.279Z,99.90
2018-07-07T06:40:02.893Z,99.90
2018-07-07T06:42:31.437Z,99.90
2018-07-07T06:44:59.996Z,99.90
2018-07-07T06:47:28.525Z,99.90
2018-07-07T06:49:57.084Z,99.90
2018-07-07T06:52:25.592Z,99.90
2018-07-07T06:54:54.134Z,99.90
2018-07-07T06:57:22.648Z,99.90
2018-07-07T06:59:51.237Z,99.90
2018-07-07T07:02:19.773Z,99.90
2018-07-07T07:04:48.378Z,99.90
2018-07-07T07:07:16.888Z,99.90
2018-07-07T07:09:45.660Z,99.90
2018-07-07T07:12:14.217Z,99.90
2018-07-07T07:14:42.827Z,99.90
2018-07-07T07:17:11.404Z,99.90
2018-07-07T07:19:39.946Z,99.90
2018-07-07T07:22:08.470Z,99.90
2018-07-07T07:24:37.026Z,99.90
2018-07-07T07:27:05.636Z,99.90
2018-07-07T07:29:34.185Z,99.90
2018-07-07T07:32:02.755Z,99.90
2018-07-07T07:34:31.323Z,99.90
2018-07-07T07:36:59.899Z,99.90
2018-07-07T07:39:28.448Z,99.90
2018-07-07T07:41:56.994Z,99.90
2018-07-07T07:44:25.627Z,99.90
2018-07-07T07:46:54.159Z,99.90
2018-07-07T07:49:22.705Z,99.90
2018-07-07T08:08:39.247Z,99.90
2018-07-07T08:11:07.884Z,99.90
2018-07-07T08:13:36.616Z,99.90
2018-07-07T08:16:05.289Z,99.90
2018-07-07T08:18:34.087Z,99.90
2018-07-07T08:21:02.706Z,99.90
2018-07-07T08:23:31.284Z,99.90
2018-07-07T08:25:59.919Z,99.90
2018-07-07T08:28:28.570Z,99.90
2018-07-07T08:30:57.181Z,99.90
2018-07-07T08:33:25.732Z,99.90
2018-07-07T08:35:54.988Z,99.90
2018-07-07T08:38:23.537Z,99.90
2018-07-07T08:40:52.140Z,99.90
2018-07-07T08:43:21.283Z,99.90
2018-07-07T08:45:49.952Z,99.90
2018-07-07T08:48:18.555Z,99.90
2018-07-07T08:50:47.198Z,99.90
2018-07-07T08:53:15.817Z,99.90
2018-07-07T08:55:44.456Z,99.90
2018-07-07T09:15:00.057Z,99.90
2018-07-07T09:17:28.835Z,99.90
2018-07-07T09:19:57.342Z,99.90
2018-07-07T09:22:26.031Z,99.90
2018-07-07T09:24:54.735Z,99.90
2018-07-07T09:27:23.381Z,99.90
2018-07-07T09:46:34.111Z,99.90
2018-07-07T09:49:02.753Z,99.90
2018-07-07T09:51:31.417Z,99.90
2018-07-07T09:53:59.962Z,99.90
2018-07-07T09:56:28.525Z,99.90
2018-07-07T09:58:57.088Z,99.90
2018-07-07T10:01:25.678Z,99.90
2018-07-07T10:03:54.250Z,99.90
2018-07-07T10:06:22.804Z,99.90
2018-07-07T10:08:51.363Z,99.90
2018-07-07T10:11:19.969Z,99.90
2018-07-07T10:13:48.545Z,99.90
2018-07-07T10:16:17.113Z,99.90
2018-07-07T10:18:45.682Z,99.90
2018-07-07T10:21:14.257Z,99.90
2018-07-07T10:23:42.861Z,99.90
2018-07-07T10:26:11.433Z,99.90
2018-07-07T10:28:40.000Z,99.90
2018-07-07T10:31:08.636Z,99.90
2018-07-07T10:33:37.278Z,99.90
2018-07-07T10:36:06.158Z,99.90
2018-07-07T10:38:34.730Z,99.90
2018-07-07T10:41:03.270Z,99.90
2018-07-07T10:43:31.829Z,99.90
2018-07-07T10:46:00.489Z,99.90
2018-07-07T10:48:28.980Z,99.90
2018-07-07T10:50:57.686Z,99.90
2018-07-07T10:53:26.398Z,99.90
2018-07-07T10:55:55.147Z,99.90
2018-07-07T10:58:23.752Z,99.90
2018-07-07T11:00:52.449Z,99.90
2018-07-07T11:05:49.348Z,99.90
2018-07-07T11:08:17.995Z,99.90
2018-07-07T11:10:46.671Z,99.90
2018-07-07T11:13:15.305Z,99.90
2018-07-07T11:15:44.028Z,99.90
2018-07-07T11:18:12.793Z,99.00
2018-07-07T11:20:41.462Z,98.50
2018-07-07T11:25:38.310Z,98.20
2018-07-07T11:28:06.901Z,98.50
2018-07-07T11:30:35.534Z,98.30
2018-07-07T11:33:04.126Z,96.50
2018-07-07T11:35:32.849Z,94.70
2018-07-07T11:38:01.434Z,94.50
2018-07-07T11:40:30.051Z,95.70
2018-07-07T11:42:58.591Z,93.60
2018-07-07T11:45:27.169Z,94.40
2018-07-07T11:47:55.765Z,92.90
2018-07-07T11:50:24.404Z,95.10
2018-07-07T11:52:53.011Z,93.10
2018-07-07T11:55:21.594Z,94.20
2018-07-07T11:57:50.168Z,94.30
2018-07-07T12:00:18.775Z,94.10
2018-07-07T12:02:47.405Z,94.80
2018-07-07T12:05:16.080Z,94.50
2018-07-07T12:07:44.637Z,93.60
2018-07-07T12:10:13.325Z,92.90
2018-07-07T12:12:41.950Z,92.60
2018-07-07T12:15:10.625Z,92.90
2018-07-07T12:17:39.301Z,91.00
2018-07-07T12:20:07.908Z,92.80
2018-07-07T12:22:36.500Z,90.70
2018-07-07T12:25:05.083Z,90.30
2018-07-07T12:27:33.593Z,90.10
2018-07-07T12:30:02.184Z,90.20
2018-07-07T12:32:30.694Z,89.10
2018-07-07T12:34:59.250Z,88.20
2018-07-07T12:37:27.774Z,88.40
2018-07-07T12:39:56.415Z,89.90
2018-07-07T12:42:24.980Z,90.00
2018-07-07T12:44:53.622Z,90.60
2018-07-07T12:47:23.074Z,90.00
2018-07-07T12:49:51.726Z,90.50
2018-07-07T12:52:20.236Z,90.00
2018-07-07T12:54:48.897Z,90.50
2018-07-07T12:57:17.467Z,90.40
2018-07-07T12:59:46.015Z,89.30
2018-07-07T13:02:14.535Z,88.60
2018-07-07T13:04:43.092Z,87.40
2018-07-07T13:07:11.624Z,85.10
2018-07-07T13:09:40.180Z,85.90
2018-07-07T13:12:08.731Z,86.10
2018-07-07T13:14:37.440Z,81.90
2018-07-07T13:17:06.179Z,80.80
2018-07-07T13:19:34.781Z,82.20
2018-07-07T13:22:03.345Z,80.90
2018-07-07T13:24:31.951Z,80.60
2018-07-07T13:27:00.492Z,78.20
2018-07-07T13:29:29.069Z,81.10
2018-07-07T13:31:57.699Z,82.40
2018-07-07T13:34:26.346Z,81.90
2018-07-07T13:36:54.883Z,82.10
2018-07-07T13:39:23.474Z,81.60
2018-07-07T13:41:52.006Z,79.50
2018-07-07T13:44:20.707Z,77.90
2018-07-07T13:46:49.417Z,80.40
2018-07-07T13:49:18.105Z,80.60
2018-07-07T13:51:46.667Z,79.80
2018-07-07T13:54:15.560Z,78.90
2018-07-07T13:56:44.154Z,80.40
2018-07-07T13:59:12.917Z,80.10
2018-07-07T14:01:41.511Z,81.60
2018-07-07T14:04:10.177Z,81.30
2018-07-07T14:06:38.711Z,81.00
2018-07-07T14:09:07.835Z,84.30
2018-07-07T14:11:36.595Z,81.10
2018-07-07T14:14:05.537Z,79.70
2018-07-07T14:16:34.162Z,79.80
2018-07-07T14:19:02.770Z,81.30
2018-07-07T14:21:31.309Z,80.80
2018-07-07T14:23:59.880Z,80.80
2018-07-07T14:26:28.485Z,79.00
2018-07-07T14:28:57.336Z,81.60
2018-07-07T14:31:25.862Z,79.20
2018-07-07T14:36:22.612Z,78.20
2018-07-07T14:38:51.200Z,78.30
2018-07-07T14:41:21.125Z,78.50
2018-07-07T14:44:05.777Z,78.80
2018-07-07T14:46:35.157Z,79.10
2018-07-07T14:49:03.712Z,78.00
2018-07-07T14:51:32.590Z,80.80
2018-07-07T14:54:01.113Z,78.90
2018-07-07T14:56:29.928Z,79.00
2018-07-07T15:15:48.841Z,81.10
2018-07-07T15:18:17.382Z,80.20
2018-07-07T15:20:45.983Z,80.80
2018-07-07T15:23:14.614Z,80.40
2018-07-07T15:25:43.267Z,81.00
2018-07-07T15:28:11.867Z,80.20
2018-07-07T15:30:40.658Z,79.40
2018-07-07T15:33:09.329Z,79.40
2018-07-07T15:35:37.953Z,80.20
2018-07-07T15:38:06.498Z,79.50
2018-07-07T15:40:35.542Z,78.80
2018-07-07T15:43:04.179Z,77.50
2018-07-07T15:45:32.764Z,79.30
2018-07-07T15:48:01.335Z,78.90
2018-07-07T15:50:29.894Z,79.70
2018-07-07T15:52:58.797Z,79.30
2018-07-07T15:55:27.413Z,78.60
2018-07-07T15:57:55.948Z,77.60
2018-07-07T16:00:24.557Z,77.50
2018-07-07T16:02:53.398Z,78.40
2018-07-07T16:05:21.987Z,77.30
2018-07-07T16:07:50.502Z,77.20
2018-07-07T16:10:19.116Z,77.80
2018-07-07T16:12:47.665Z,77.00
2018-07-07T16:15:16.313Z,77.70
2018-07-07T16:17:44.878Z,79.50
2018-07-07T16:20:13.469Z,80.00
2018-07-07T16:22:41.975Z,78.40
2018-07-07T16:25:10.504Z,77.70
2018-07-07T16:27:39.068Z,78.80
2018-07-07T16:30:07.646Z,77.00
2018-07-07T16:32:36.187Z,76.90
2018-07-07T16:35:04.823Z,77.20
2018-07-07T16:37:33.496Z,75.20
2018-07-07T16:40:02.206Z,76.20
2018-07-07T16:42:30.855Z,78.20
2018-07-07T16:47:28.421Z,75.80
2018-07-07T16:49:57.202Z,73.50
2018-07-07T16:52:26.000Z,74.20
2018-07-07T16:54:54.622Z,73.80
2018-07-07T16:57:24.884Z,74.30
2018-07-07T16:59:54.139Z,73.30
2018-07-07T17:02:22.700Z,71.00
2018-07-07T17:04:51.362Z,74.70
2018-07-07T17:07:19.986Z,72.40
2018-07-07T17:09:49.177Z,73.50
2018-07-07T17:12:17.805Z,71.30
2018-07-07T17:14:46.404Z,71.80
2018-07-07T17:17:14.976Z,70.00
2018-07-07T17:19:44.141Z,71.30
2018-07-07T17:22:12.924Z,71.40
2018-07-07T17:24:41.778Z,72.70
2018-07-07T17:27:10.371Z,71.80
2018-07-07T17:29:39.211Z,71.00
2018-07-07T17:32:08.189Z,68.80
2018-07-07T17:34:36.777Z,69.00
2018-07-07T17:37:06.142Z,69.80
2018-07-07T17:39:35.071Z,70.10
2018-07-07T17:42:03.820Z,70.30
2018-07-07T17:44:32.607Z,70.00
2018-07-07T17:47:01.227Z,71.10
2018-07-07T17:49:30.103Z,72.50
2018-07-07T17:51:59.287Z,71.20
2018-07-07T17:54:28.013Z,71.90
2018-07-07T17:56:56.651Z,71.50
2018-07-07T17:59:25.355Z,71.00
2018-07-07T18:01:54.217Z,69.60
2018-07-07T18:04:22.809Z,69.50
2018-07-07T18:06:51.455Z,71.10
2018-07-07T18:09:20.062Z,70.60
2018-07-07T18:11:48.750Z,70.00
2018-07-07T18:14:17.451Z,69.80
2018-07-07T18:16:46.038Z,70.00
2018-07-07T18:19:14.799Z,69.80
2018-07-07T18:21:43.540Z,70.80
2018-07-07T18:24:12.158Z,68.80
2018-07-07T18:26:40.787Z,68.80
2018-07-07T18:29:09.398Z,69.70
2018-07-07T18:31:38.042Z,68.30
2018-07-07T18:34:06.663Z,67.60
2018-07-07T18:36:35.226Z,66.90
2018-07-07T18:39:04.828Z,66.70
2018-07-07T18:41:33.506Z,67.70
2018-07-07T18:44:02.115Z,66.70
2018-07-07T18:46:30.689Z,67.40
2018-07-07T18:48:59.323Z,67.20
2018-07-07T18:51:27.883Z,67.50
2018-07-07T18:53:56.449Z,66.90
2018-07-07T18:56:25.136Z,68.40
2018-07-07T18:58:53.738Z,71.20
2018-07-07T19:01:22.394Z,70.20
2018-07-07T19:03:51.069Z,71.60
2018-07-07T19:06:19.647Z,68.60
2018-07-07T19:08:48.298Z,72.00
2018-07-07T19:11:16.950Z,70.50
2018-07-07T19:13:45.542Z,70.40
2018-07-07T19:16:14.175Z,68.30
2018-07-07T19:18:42.745Z,69.10
2018-07-07T19:21:16.781Z,69.70
2018-07-07T19:23:50.535Z,71.40
2018-07-07T19:26:24.465Z,71.90
2018-07-07T19:28:53.088Z,70.20
2018-07-07T19:31:21.670Z,68.20
2018-07-07T19:33:55.528Z,66.90
2018-07-07T19:38:57.775Z,65.80
2018-07-07T19:41:26.388Z,64.10
2018-07-07T19:43:54.951Z,64.50
2018-07-07T19:46:23.558Z,65.00
2018-07-07T19:48:52.164Z,65.10
2018-07-07T19:51:20.733Z,65.50
2018-07-07T19:53:49.354Z,66.20
2018-07-07T19:56:17.951Z,66.90
2018-07-07T19:58:46.653Z,65.00
2018-07-07T20:01:15.292Z,64.60
2018-07-07T20:03:43.843Z,65.30
2018-07-07T20:06:12.411Z,66.00
2018-07-07T20:08:40.961Z,67.80
2018-07-07T20:11:09.557Z,67.70
2018-07-07T20:13:38.135Z,68.60
2018-07-07T20:16:09.136Z,71.20
2018-07-07T20:18:51.915Z,74.50
2018-07-07T20:22:03.925Z,73.70
2018-07-07T20:24:34.771Z,75.40
2018-07-07T20:27:08.644Z,74.50
2018-07-07T20:29:37.255Z,75.80
2018-07-07T20:32:11.097Z,74.60
2018-07-07T20:34:39.716Z,77.40
2018-07-07T20:37:08.443Z,77.00
2018-07-07T20:39:37.078Z,77.00
2018-07-07T20:42:05.869Z,77.50
2018-07-07T20:44:34.545Z,78.90
2018-07-07T20:47:03.080Z,79.40
2018-07-07T20:49:31.652Z,78.40
2018-07-07T20:52:00.202Z,78.70
2018-07-07T20:54:28.726Z,80.40
2018-07-07T20:56:57.279Z,79.00
2018-07-07T20:59:25.875Z,77.30
2018-07-07T21:04:22.768Z,80.50
2018-07-07T21:06:51.424Z,80.00
2018-07-07T21:09:20.138Z,78.30
2018-07-07T21:11:48.694Z,77.20
2018-07-07T21:14:17.211Z,77.90
2018-07-07T21:16:45.771Z,76.60
2018-07-07T21:19:14.374Z,74.10
2018-07-07T21:21:42.981Z,77.40
2018-07-07T21:24:11.553Z,74.70
2018-07-07T21:26:40.102Z,79.40
2018-07-07T21:29:08.712Z,80.30
2018-07-07T21:31:37.316Z,79.30
2018-07-07T21:34:06.053Z,77.40
2018-07-07T21:36:34.646Z,79.60
2018-07-07T21:39:03.457Z,81.40
2018-07-07T21:41:32.019Z,77.10
2018-07-07T21:44:00.607Z,79.90
2018-07-07T21:46:29.161Z,80.30
2018-07-07T21:48:57.730Z,81.60
2018-07-07T21:51:26.406Z,80.80
2018-07-07T21:53:55.154Z,79.90
2018-07-07T21:56:23.655Z,82.10
2018-07-07T21:58:57.699Z,82.30
2018-07-07T22:21:16.419Z,80.00
2018-07-07T22:23:45.015Z,80.80
2018-07-07T22:26:13.980Z,83.60
2018-07-07T22:28:42.695Z,81.10
2018-07-07T22:31:11.256Z,83.90
2018-07-07T22:33:39.947Z,82.20
2018-07-07T22:36:13.889Z,84.40
2018-07-07T22:38:47.872Z,81.60
2018-07-07T22:41:16.414Z,81.00
2018-07-07T22:43:44.959Z,83.40
2018-07-07T22:46:13.552Z,82.70
2018-07-07T22:48:42.157Z,85.80
2018-07-07T22:51:10.754Z,85.00
2018-07-07T22:53:39.462Z,84.70
2018-07-07T22:56:08.066Z,85.20
2018-07-07T22:58:36.677Z,85.40
2018-07-07T23:01:05.240Z,85.40
2018-07-07T23:03:33.785Z,85.90
2018-07-07T23:06:02.295Z,89.40
2018-07-07T23:08:30.818Z,88.30
2018-07-07T23:10:59.378Z,87.90
2018-07-07T23:13:28.000Z,88.80
2018-07-07T23:15:56.571Z,89.20
2018-07-07T23:18:25.143Z,90.00
2018-07-07T23:20:53.716Z,89.80
2018-07-07T23:23:22.292Z,90.50
2018-07-07T23:25:50.955Z,90.10
2018-07-07T23:28:19.529Z,90.60
2018-07-07T23:30:48.431Z,90.70
2018-07-07T23:33:16.979Z,90.40
2018-07-07T23:35:45.521Z,90.40
2018-07-07T23:38:14.126Z,90.60
2018-07-07T23:40:42.707Z,91.00
2018-07-07T23:43:11.341Z,91.00
2018-07-07T23:45:39.915Z,91.20
2018-07-07T23:48:08.545Z,91.20
2018-07-07T23:50:37.043Z,91.90
2018-07-07T23:53:05.654Z,92.00
2018-07-07T23:55:34.196Z,92.90
2018-07-07T23:58:02.769Z,92.20
